KLAF/LAF METAR and TAF weather

Enter ICAO airport designator
Station Type Date Time Source
KLAF METAR 2020/08/07 10:54 UTC NOAA

KLAF 071054Z 00000KT 10SM CLR 13/12 A3016 RMK AO2 SLP209 T01330122 $


Station Type Date Time Source
KLAF Decoded METAR 2020/08/07 10:54 UTC NOAA

LAFAYETTE PURDUE UNIV AIRPORT , IN, United States (KLAF) 40-25N 86-57W 182M
Aug 07, 2020 - 06:54 AM EDT / 2020.08.07 1054 UTC
Wind: Calm:0
Visibility: 10 mile(s):0
Sky conditions: clear
Temperature: 55.9 F (13.3 C)
Dew Point: 54.0 F (12.2 C)
Relative Humidity: 93%
Pressure (altimeter): 30.16 in. Hg (1021 hPa)
ob: KLAF 071054Z 00000KT 10SM CLR 13/12 A3016 RMK AO2 SLP209 T01330122
cycle: 11

Station Type Date Time Source
KLAF TAF 2020/08/07 12:22 UTC NOAA

TAF KLAF 071120Z 0712/0812 00000KT P6SM FEW250

Example: see airport list